Terminal Aerodrome Forecast
Issued by NWS Sterling, VA

Home | Current Version | Previous Version | Text Only | Print | Product List | Glossary On
Versions: 1 2 3 4 5 6 7 8 9 10 11 12 13 14 15 16 17 18 19 20 21 22 23
000
FTUS41 KLWX 051802 AAA
TAFMRB
TAF AMD
KMRB 051802Z 0518/0618 34010G18KT 1/2SM SN OVC008
      TEMPO 0518/0519 1/4SM +SN
     FM052000 34010KT 2SM -SN OVC008
     FM052200 34009KT 6SM -SN OVC015
     FM060200 32008KT P6SM SCT050
     FM060600 35005KT P6SM FEW250=

USA.gov is the U.S. government's official web portal to all federal, state and local government web resources and services.